sensor_id;sensor_type;location;lat;lon;timestamp;pressure;altitude;pressure_sealevel;temperature;humidity
18988;BME280;5494;51.796;10.952;2023-02-26T00:01:49;98755.66;;;-0.09;100.00
18988;BME280;5494;51.796;10.952;2023-02-26T00:04:17;98748.84;;;-0.12;100.00
18988;BME280;5494;51.796;10.952;2023-02-26T00:06:45;98758.16;;;-0.06;100.00
18988;BME280;5494;51.796;10.952;2023-02-26T00:09:26;98761.59;;;-0.09;100.00
18988;BME280;5494;51.796;10.952;2023-02-26T00:11:55;98764.22;;;-0.15;100.00
18988;BME280;5494;51.796;10.952;2023-02-26T00:14:23;98761.78;;;-0.27;100.00
18988;BME280;5494;51.796;10.952;2023-02-26T00:17:08;98764.47;;;-0.36;100.00
18988;BME280;5494;51.796;10.952;2023-02-26T00:19:42;98764.34;;;-0.27;100.00
18988;BME280;5494;51.796;10.952;2023-02-26T00:22:11;98774.47;;;-0.18;100.00
18988;BME280;5494;51.796;10.952;2023-02-26T00:24:40;98781.28;;;-0.17;100.00
18988;BME280;5494;51.796;10.952;2023-02-26T00:27:10;98777.91;;;-0.20;100.00
18988;BME280;5494;51.796;10.952;2023-02-26T00:29:40;98786.38;;;-0.18;100.00
18988;BME280;5494;51.796;10.952;2023-02-26T00:32:10;98785.50;;;-0.14;100.00
18988;BME280;5494;51.796;10.952;2023-02-26T00:34:39;98788.97;;;-0.20;100.00
18988;BME280;5494;51.796;10.952;2023-02-26T00:37:21;98788.09;;;-0.19;100.00
18988;BME280;5494;51.796;10.952;2023-02-26T00:40:06;98782.19;;;-0.22;100.00
18988;BME280;5494;51.796;10.952;2023-02-26T00:42:38;98788.88;;;-0.12;100.00
18988;BME280;5494;51.796;10.952;2023-02-26T00:45:08;98790.63;;;-0.14;100.00
18988;BME280;5494;51.796;10.952;2023-02-26T00:47:47;98783.84;;;-0.20;100.00
18988;BME280;5494;51.796;10.952;2023-02-26T00:50:21;98786.47;;;-0.23;100.00
18988;BME280;5494;51.796;10.952;2023-02-26T00:53:03;98788.97;;;-0.20;100.00
18988;BME280;5494;51.796;10.952;2023-02-26T00:55:37;98791.69;;;-0.35;100.00
18988;BME280;5494;51.796;10.952;2023-02-26T00:58:05;98796.81;;;-0.38;100.00
18988;BME280;5494;51.796;10.952;2023-02-26T01:00:33;98791.72;;;-0.40;100.00
18988;BME280;5494;51.796;10.952;2023-02-26T01:03:02;98797.66;;;-0.37;100.00
18988;BME280;5494;51.796;10.952;2023-02-26T01:05:31;98794.19;;;-0.29;100.00
18988;BME280;5494;51.796;10.952;2023-02-26T01:08:10;98804.41;;;-0.32;100.00
18988;BME280;5494;51.796;10.952;2023-02-26T01:10:45;98798.53;;;-0.37;100.00
18988;BME280;5494;51.796;10.952;2023-02-26T01:13:14;98806.25;;;-0.43;100.00
18988;BME280;5494;51.796;10.952;2023-02-26T01:15:50;98812.19;;;-0.44;100.00
18988;BME280;5494;51.796;10.952;2023-02-26T01:18:25;98802.03;;;-0.49;100.00
18988;BME280;5494;51.796;10.952;2023-02-26T01:20:59;98809.66;;;-0.47;100.00
18988;BME280;5494;51.796;10.952;2023-02-26T01:23:34;98817.38;;;-0.52;100.00
18988;BME280;5494;51.796;10.952;2023-02-26T01:26:12;98804.72;;;-0.64;100.00
18988;BME280;5494;51.796;10.952;2023-02-26T01:28:42;98813.19;;;-0.62;100.00
18988;BME280;5494;51.796;10.952;2023-02-26T01:31:31;98812.38;;;-0.64;100.00
18988;BME280;5494;51.796;10.952;2023-02-26T01:34:07;98815.84;;;-0.71;100.00
18988;BME280;5494;51.796;10.952;2023-02-26T01:36:43;98813.31;;;-0.74;100.00
18988;BME280;5494;51.796;10.952;2023-02-26T01:39:19;98809.06;;;-0.73;100.00
18988;BME280;5494;51.796;10.952;2023-02-26T01:41:57;98815.06;;;-0.77;100.00
18988;BME280;5494;51.796;10.952;2023-02-26T01:44:35;98815.06;;;-0.79;100.00
18988;BME280;5494;51.796;10.952;2023-02-26T01:47:16;98814.16;;;-0.72;100.00
18988;BME280;5494;51.796;10.952;2023-02-26T01:49:48;98811.66;;;-0.80;100.00
18988;BME280;5494;51.796;10.952;2023-02-26T01:53:14;98820.22;;;-0.90;100.00
18988;BME280;5494;51.796;10.952;2023-02-26T01:55:48;98819.38;;;-0.89;100.00
18988;BME280;5494;51.796;10.952;2023-02-26T01:58:21;98822.78;;;-0.87;100.00
18988;BME280;5494;51.796;10.952;2023-02-26T02:00:50;98824.47;;;-0.87;100.00
18988;BME280;5494;51.796;10.952;2023-02-26T02:03:21;98827.88;;;-0.87;100.00
18988;BME280;5494;51.796;10.952;2023-02-26T02:05:55;98835.47;;;-0.81;100.00
18988;BME280;5494;51.796;10.952;2023-02-26T02:08:25;98843.13;;;-0.81;100.00
18988;BME280;5494;51.796;10.952;2023-02-26T02:10:53;98834.56;;;-0.72;100.00
18988;BME280;5494;51.796;10.952;2023-02-26T02:13:39;98841.38;;;-0.75;100.00
18988;BME280;5494;51.796;10.952;2023-02-26T02:16:20;98837.13;;;-0.75;100.00
18988;BME280;5494;51.796;10.952;2023-02-26T02:19:00;98844.78;;;-0.75;100.00
18988;BME280;5494;51.796;10.952;2023-02-26T02:22:05;98856.69;;;-0.75;100.00
18988;BME280;5494;51.796;10.952;2023-02-26T02:24:56;98860.09;;;-0.75;100.00
18988;BME280;5494;51.796;10.952;2023-02-26T02:27:40;98861.78;;;-0.74;100.00
18988;BME280;5494;51.796;10.952;2023-02-26T02:30:39;98852.47;;;-0.80;100.00
18988;BME280;5494;51.796;10.952;2023-02-26T02:33:14;98863.53;;;-0.79;100.00
18988;BME280;5494;51.796;10.952;2023-02-26T02:35:53;98865.22;;;-0.76;100.00
18988;BME280;5494;51.796;10.952;2023-02-26T02:38:30;98873.69;;;-0.76;100.00
18988;BME280;5494;51.796;10.952;2023-02-26T02:41:09;98877.19;;;-0.83;100.00
18988;BME280;5494;51.796;10.952;2023-02-26T02:43:41;98874.59;;;-0.78;100.00
18988;BME280;5494;51.796;10.952;2023-02-26T02:46:15;98889.88;;;-0.75;100.00
18988;BME280;5494;51.796;10.952;2023-02-26T02:48:54;98886.50;;;-0.77;100.00
18988;BME280;5494;51.796;10.952;2023-02-26T02:51:29;98893.25;;;-0.73;100.00
18988;BME280;5494;51.796;10.952;2023-02-26T02:54:04;98901.81;;;-0.77;100.00
18988;BME280;5494;51.796;10.952;2023-02-26T02:56:41;98900.06;;;-0.75;100.00
18988;BME280;5494;51.796;10.952;2023-02-26T02:59:17;98908.56;;;-0.70;100.00
18988;BME280;5494;51.796;10.952;2023-02-26T03:01:52;98906.88;;;-0.74;100.00
18988;BME280;5494;51.796;10.952;2023-02-26T03:04:26;98917.06;;;-0.71;100.00
18988;BME280;5494;51.796;10.952;2023-02-26T03:06:55;98917.06;;;-0.74;100.00
18988;BME280;5494;51.796;10.952;2023-02-26T03:09:23;98916.22;;;-0.70;100.00
18988;BME280;5494;51.796;10.952;2023-02-26T03:11:51;98926.38;;;-0.67;100.00
18988;BME280;5494;51.796;10.952;2023-02-26T03:14:19;98926.38;;;-0.66;100.00
18988;BME280;5494;51.796;10.952;2023-02-26T03:17:15;98932.34;;;-0.62;100.00
18988;BME280;5494;51.796;10.952;2023-02-26T03:20:05;98938.28;;;-0.63;100.00
18988;BME280;5494;51.796;10.952;2023-02-26T03:22:44;98941.69;;;-0.69;100.00
18988;BME280;5494;51.796;10.952;2023-02-26T03:25:31;98949.34;;;-0.64;100.00
18988;BME280;5494;51.796;10.952;2023-02-26T03:28:09;98952.75;;;-0.68;100.00
18988;BME280;5494;51.796;10.952;2023-02-26T03:30:43;98945.00;;;-0.55;100.00
18988;BME280;5494;51.796;10.952;2023-02-26T03:33:17;98950.13;;;-0.55;100.00
18988;BME280;5494;51.796;10.952;2023-02-26T03:35:53;98954.41;;;-0.60;100.00
18988;BME280;5494;51.796;10.952;2023-02-26T03:38:29;98959.56;;;-0.64;100.00
18988;BME280;5494;51.796;10.952;2023-02-26T03:41:04;98967.16;;;-0.58;100.00
18988;BME280;5494;51.796;10.952;2023-02-26T03:43:40;98972.28;;;-0.61;100.00
18988;BME280;5494;51.796;10.952;2023-02-26T03:46:15;98981.63;;;-0.59;100.00
18988;BME280;5494;51.796;10.952;2023-02-26T03:48:50;98986.75;;;-0.60;100.00
18988;BME280;5494;51.796;10.952;2023-02-26T03:51:25;98991.88;;;-0.66;100.00
18988;BME280;5494;51.796;10.952;2023-02-26T03:54:31;99001.25;;;-0.62;100.00
18988;BME280;5494;51.796;10.952;2023-02-26T03:57:27;98998.69;;;-0.64;100.00
18988;BME280;5494;51.796;10.952;2023-02-26T04:00:10;98997.81;;;-0.61;100.00
18988;BME280;5494;51.796;10.952;2023-02-26T04:02:54;99006.34;;;-0.65;100.00
18988;BME280;5494;51.796;10.952;2023-02-26T04:05:27;98999.53;;;-0.65;100.00
18988;BME280;5494;51.796;10.952;2023-02-26T04:07:58;99008.03;;;-0.66;100.00
18988;BME280;5494;51.796;10.952;2023-02-26T04:10:35;99008.91;;;-0.65;100.00
18988;BME280;5494;51.796;10.952;2023-02-26T04:13:06;99011.41;;;-0.56;100.00
18988;BME280;5494;51.796;10.952;2023-02-26T04:15:34;99011.38;;;-0.55;100.00
18988;BME280;5494;51.796;10.952;2023-02-26T04:18:03;99019.09;;;-0.65;100.00
18988;BME280;5494;51.796;10.952;2023-02-26T04:20:32;99026.72;;;-0.59;100.00
18988;BME280;5494;51.796;10.952;2023-02-26T04:23:01;99029.31;;;-0.62;100.00
18988;BME280;5494;51.796;10.952;2023-02-26T04:25:29;99022.47;;;-0.59;100.00
18988;BME280;5494;51.796;10.952;2023-02-26T04:27:58;99030.94;;;-0.55;100.00
18988;BME280;5494;51.796;10.952;2023-02-26T04:30:26;99030.16;;;-0.63;100.00
18988;BME280;5494;51.796;10.952;2023-02-26T04:32:56;99039.53;;;-0.62;100.00
18988;BME280;5494;51.796;10.952;2023-02-26T04:35:24;99043.78;;;-0.63;100.00
18988;BME280;5494;51.796;10.952;2023-02-26T04:37:55;99042.06;;;-0.68;100.00
18988;BME280;5494;51.796;10.952;2023-02-26T04:40:25;99043.78;;;-0.69;100.00
18988;BME280;5494;51.796;10.952;2023-02-26T04:42:53;99049.72;;;-0.62;100.00
18988;BME280;5494;51.796;10.952;2023-02-26T04:45:25;99054.84;;;-0.62;100.00
18988;BME280;5494;51.796;10.952;2023-02-26T04:47:53;99051.44;;;-0.63;100.00
18988;BME280;5494;51.796;10.952;2023-02-26T04:50:21;99052.28;;;-0.67;100.00
18988;BME280;5494;51.796;10.952;2023-02-26T04:52:51;99048.91;;;-0.73;100.00
18988;BME280;5494;51.796;10.952;2023-02-26T04:55:20;99061.66;;;-0.67;100.00
18988;BME280;5494;51.796;10.952;2023-02-26T04:57:49;99063.34;;;-0.63;100.00
18988;BME280;5494;51.796;10.952;2023-02-26T05:00:22;99065.00;;;-0.61;100.00
18988;BME280;5494;51.796;10.952;2023-02-26T05:02:51;99065.88;;;-0.57;100.00
18988;BME280;5494;51.796;10.952;2023-02-26T05:05:19;99070.13;;;-0.58;100.00
18988;BME280;5494;51.796;10.952;2023-02-26T05:07:48;99073.56;;;-0.63;100.00
18988;BME280;5494;51.796;10.952;2023-02-26T05:10:16;99086.28;;;-0.57;100.00
18988;BME280;5494;51.796;10.952;2023-02-26T05:12:44;99086.25;;;-0.54;100.00
18988;BME280;5494;51.796;10.952;2023-02-26T05:15:15;99085.44;;;-0.61;100.00
18988;BME280;5494;51.796;10.952;2023-02-26T05:17:43;99087.16;;;-0.64;100.00
18988;BME280;5494;51.796;10.952;2023-02-26T05:20:12;99082.91;;;-0.62;100.00
18988;BME280;5494;51.796;10.952;2023-02-26T05:22:41;99092.28;;;-0.64;100.00
18988;BME280;5494;51.796;10.952;2023-02-26T05:25:10;99102.47;;;-0.63;100.00
18988;BME280;5494;51.796;10.952;2023-02-26T05:27:40;99102.47;;;-0.64;100.00
18988;BME280;5494;51.796;10.952;2023-02-26T05:30:13;99100.78;;;-0.67;100.00
18988;BME280;5494;51.796;10.952;2023-02-26T05:32:44;99106.72;;;-0.66;100.00
18988;BME280;5494;51.796;10.952;2023-02-26T05:35:13;99111.00;;;-0.71;100.00
18988;BME280;5494;51.796;10.952;2023-02-26T05:37:41;99100.78;;;-0.65;100.00
18988;BME280;5494;51.796;10.952;2023-02-26T05:40:10;99105.91;;;-0.73;100.00
18988;BME280;5494;51.796;10.952;2023-02-26T05:42:39;99112.69;;;-0.69;100.00
18988;BME280;5494;51.796;10.952;2023-02-26T05:45:07;99131.44;;;-0.71;100.00
18988;BME280;5494;51.796;10.952;2023-02-26T05:47:36;99127.16;;;-0.72;100.00
18988;BME280;5494;51.796;10.952;2023-02-26T05:50:06;99134.81;;;-0.66;100.00
18988;BME280;5494;51.796;10.952;2023-02-26T05:52:34;99148.44;;;-0.70;100.00
18988;BME280;5494;51.796;10.952;2023-02-26T05:55:03;99145.03;;;-0.74;100.00
18988;BME280;5494;51.796;10.952;2023-02-26T05:57:35;99151.00;;;-0.72;100.00
18988;BME280;5494;51.796;10.952;2023-02-26T06:00:05;99151.84;;;-0.71;100.00
18988;BME280;5494;51.796;10.952;2023-02-26T06:02:38;99153.50;;;-0.67;100.00
18988;BME280;5494;51.796;10.952;2023-02-26T06:05:09;99156.09;;;-0.75;100.00
18988;BME280;5494;51.796;10.952;2023-02-26T06:07:37;99163.72;;;-0.67;100.00
18988;BME280;5494;51.796;10.952;2023-02-26T06:10:07;99163.72;;;-0.67;100.00
18988;BME280;5494;51.796;10.952;2023-02-26T06:12:35;99173.94;;;-0.66;100.00
18988;BME280;5494;51.796;10.952;2023-02-26T06:15:06;99179.88;;;-0.61;100.00
18988;BME280;5494;51.796;10.952;2023-02-26T06:17:35;99182.44;;;-0.64;100.00
18988;BME280;5494;51.796;10.952;2023-02-26T06:20:09;99190.09;;;-0.64;100.00
18988;BME280;5494;51.796;10.952;2023-02-26T06:22:38;99193.47;;;-0.60;100.00
18988;BME280;5494;51.796;10.952;2023-02-26T06:25:07;99196.88;;;-0.55;100.00
18988;BME280;5494;51.796;10.952;2023-02-26T06:27:35;99201.97;;;-0.54;100.00
18988;BME280;5494;51.796;10.952;2023-02-26T06:30:05;99203.69;;;-0.51;100.00
18988;BME280;5494;51.796;10.952;2023-02-26T06:32:33;99201.97;;;-0.55;100.00
18988;BME280;5494;51.796;10.952;2023-02-26T06:35:01;99213.03;;;-0.50;100.00
18988;BME280;5494;51.796;10.952;2023-02-26T06:37:31;99217.28;;;-0.43;100.00
18988;BME280;5494;51.796;10.952;2023-02-26T06:39:59;99224.09;;;-0.45;100.00
18988;BME280;5494;51.796;10.952;2023-02-26T06:42:26;99220.66;;;-0.40;100.00
18988;BME280;5494;51.796;10.952;2023-02-26T06:44:54;99234.28;;;-0.42;100.00
18988;BME280;5494;51.796;10.952;2023-02-26T06:47:23;99235.97;;;-0.35;100.00
18988;BME280;5494;51.796;10.952;2023-02-26T06:49:51;99248.75;;;-0.38;100.00
18988;BME280;5494;51.796;10.952;2023-02-26T06:52:19;99248.72;;;-0.32;100.00
18988;BME280;5494;51.796;10.952;2023-02-26T06:54:48;99253.00;;;-0.37;100.00
18988;BME280;5494;51.796;10.952;2023-02-26T06:57:17;99250.44;;;-0.37;100.00
18988;BME280;5494;51.796;10.952;2023-02-26T06:59:45;99267.44;;;-0.24;100.00
18988;BME280;5494;51.796;10.952;2023-02-26T07:02:18;99255.50;;;-0.22;100.00
18988;BME280;5494;51.796;10.952;2023-02-26T07:04:46;99262.34;;;-0.33;100.00
18988;BME280;5494;51.796;10.952;2023-02-26T07:07:14;99277.66;;;-0.28;100.00
18988;BME280;5494;51.796;10.952;2023-02-26T07:09:42;99277.59;;;-0.13;100.00
18988;BME280;5494;51.796;10.952;2023-02-26T07:12:13;99281.00;;;-0.13;100.00
18988;BME280;5494;51.796;10.952;2023-02-26T07:14:41;99281.84;;;-0.06;100.00
18988;BME280;5494;51.796;10.952;2023-02-26T07:17:11;99285.19;;;0.08;100.00
18988;BME280;5494;51.796;10.952;2023-02-26T07:19:46;99280.09;;;0.11;100.00
18988;BME280;5494;51.796;10.952;2023-02-26T07:22:15;99289.44;;;0.20;100.00
18988;BME280;5494;51.796;10.952;2023-02-26T07:24:46;99293.63;;;0.33;100.00
18988;BME280;5494;51.796;10.952;2023-02-26T07:27:16;99291.00;;;0.45;100.00
18988;BME280;5494;51.796;10.952;2023-02-26T07:29:44;99308.84;;;0.54;100.00
18988;BME280;5494;51.796;10.952;2023-02-26T07:32:12;99311.34;;;0.63;100.00
18988;BME280;5494;51.796;10.952;2023-02-26T07:34:41;99313.88;;;0.69;100.00
18988;BME280;5494;51.796;10.952;2023-02-26T07:37:09;99308.75;;;0.75;100.00
18988;BME280;5494;51.796;10.952;2023-02-26T07:39:37;99320.72;;;0.69;100.00
18988;BME280;5494;51.796;10.952;2023-02-26T07:42:05;99315.53;;;0.76;100.00
18988;BME280;5494;51.796;10.952;2023-02-26T07:44:37;99323.09;;;0.95;99.32
18988;BME280;5494;51.796;10.952;2023-02-26T07:47:05;99332.34;;;1.17;97.89
18988;BME280;5494;51.796;10.952;2023-02-26T07:49:33;99331.94;;;1.61;95.39
18988;BME280;5494;51.796;10.952;2023-02-26T07:52:02;99327.03;;;2.24;92.45
18988;BME280;5494;51.796;10.952;2023-02-26T07:54:31;99333.13;;;2.83;88.17
18988;BME280;5494;51.796;10.952;2023-02-26T07:56:59;99341.63;;;3.41;82.53
18988;BME280;5494;51.796;10.952;2023-02-26T07:59:27;99334.22;;;3.74;79.00
18988;BME280;5494;51.796;10.952;2023-02-26T08:01:56;99343.63;;;3.75;75.67
18988;BME280;5494;51.796;10.952;2023-02-26T08:04:25;99348.28;;;3.54;74.66
18988;BME280;5494;51.796;10.952;2023-02-26T08:06:53;99346.75;;;3.44;74.48
18988;BME280;5494;51.796;10.952;2023-02-26T08:09:22;99353.19;;;3.14;72.00
18988;BME280;5494;51.796;10.952;2023-02-26T08:11:51;99356.69;;;2.46;73.46
18988;BME280;5494;51.796;10.952;2023-02-26T08:14:19;99356.06;;;2.26;76.68
18988;BME280;5494;51.796;10.952;2023-02-26T08:16:47;99370.72;;;2.15;77.88
18988;BME280;5494;51.796;10.952;2023-02-26T08:19:17;99372.81;;;1.73;78.71
18988;BME280;5494;51.796;10.952;2023-02-26T08:21:45;99372.75;;;1.85;78.46
18988;BME280;5494;51.796;10.952;2023-02-26T08:24:15;99375.38;;;1.75;78.37
18988;BME280;5494;51.796;10.952;2023-02-26T08:26:43;99383.34;;;1.40;76.99
18988;BME280;5494;51.796;10.952;2023-02-26T08:29:12;99389.22;;;1.52;79.66
18988;BME280;5494;51.796;10.952;2023-02-26T08:31:40;99386.66;;;1.54;77.59
18988;BME280;5494;51.796;10.952;2023-02-26T08:34:11;99385.84;;;1.50;77.79
18988;BME280;5494;51.796;10.952;2023-02-26T08:36:41;99384.31;;;1.30;76.60
18988;BME280;5494;51.796;10.952;2023-02-26T08:39:09;99385.97;;;1.38;78.01
18988;BME280;5494;51.796;10.952;2023-02-26T08:41:37;99397.81;;;1.45;77.01
18988;BME280;5494;51.796;10.952;2023-02-26T08:44:05;99400.16;;;1.74;76.93
18988;BME280;5494;51.796;10.952;2023-02-26T08:46:34;99404.38;;;1.81;74.92
18988;BME280;5494;51.796;10.952;2023-02-26T08:49:02;99399.34;;;1.71;75.92
18988;BME280;5494;51.796;10.952;2023-02-26T08:51:30;99411.91;;;1.96;75.12
18988;BME280;5494;51.796;10.952;2023-02-26T08:53:59;99417.06;;;1.95;73.88
18988;BME280;5494;51.796;10.952;2023-02-26T08:56:27;99415.41;;;1.91;73.93
18988;BME280;5494;51.796;10.952;2023-02-26T08:58:55;99418.94;;;1.73;75.23
18988;BME280;5494;51.796;10.952;2023-02-26T09:01:23;99424.78;;;1.92;73.90
18988;BME280;5494;51.796;10.952;2023-02-26T09:03:51;99433.56;;;1.61;73.16
18988;BME280;5494;51.796;10.952;2023-02-26T09:06:20;99436.41;;;1.21;75.26
18988;BME280;5494;51.796;10.952;2023-02-26T09:08:47;99439.91;;;1.05;76.33
18988;BME280;5494;51.796;10.952;2023-02-26T09:11:17;99440.84;;;0.86;77.44
18988;BME280;5494;51.796;10.952;2023-02-26T09:13:45;99444.22;;;0.95;78.32
18988;BME280;5494;51.796;10.952;2023-02-26T09:16:13;99446.84;;;0.82;77.94
18988;BME280;5494;51.796;10.952;2023-02-26T09:18:41;99451.00;;;1.10;77.24
18988;BME280;5494;51.796;10.952;2023-02-26T09:21:09;99456.22;;;0.86;76.26
18988;BME280;5494;51.796;10.952;2023-02-26T09:23:37;99454.47;;;0.91;76.38
18988;BME280;5494;51.796;10.952;2023-02-26T09:26:05;99462.22;;;0.80;77.57
18988;BME280;5494;51.796;10.952;2023-02-26T09:28:36;99467.28;;;0.83;76.94
18988;BME280;5494;51.796;10.952;2023-02-26T09:31:04;99472.41;;;0.85;76.53
18988;BME280;5494;51.796;10.952;2023-02-26T09:33:33;99468.03;;;1.14;75.64
18988;BME280;5494;51.796;10.952;2023-02-26T09:36:02;99467.97;;;1.23;74.97
18988;BME280;5494;51.796;10.952;2023-02-26T09:38:30;99475.50;;;1.49;74.98
18988;BME280;5494;51.796;10.952;2023-02-26T09:41:02;99478.88;;;1.58;74.41
18988;BME280;5494;51.796;10.952;2023-02-26T09:43:59;99472.00;;;1.64;73.87
18988;BME280;5494;51.796;10.952;2023-02-26T09:46:43;99476.22;;;1.69;73.12
18988;BME280;5494;51.796;10.952;2023-02-26T09:49:22;99479.59;;;1.76;73.22
18988;BME280;5494;51.796;10.952;2023-02-26T09:52:03;99484.66;;;1.85;72.37
18988;BME280;5494;51.796;10.952;2023-02-26T09:54:43;99486.34;;;1.86;71.59
18988;BME280;5494;51.796;10.952;2023-02-26T09:57:26;99482.78;;;2.05;72.24
18988;BME280;5494;51.796;10.952;2023-02-26T09:59:58;99493.72;;;2.24;71.18
18988;BME280;5494;51.796;10.952;2023-02-26T10:02:38;99498.50;;;2.59;68.85
18988;BME280;5494;51.796;10.952;2023-02-26T10:05:22;99490.50;;;2.88;68.65
18988;BME280;5494;51.796;10.952;2023-02-26T10:07:58;99496.41;;;2.93;66.80
18988;BME280;5494;51.796;10.952;2023-02-26T10:10:37;99487.59;;;3.16;65.68
18988;BME280;5494;51.796;10.952;2023-02-26T10:13:22;99502.56;;;2.78;66.02
18988;BME280;5494;51.796;10.952;2023-02-26T10:16:00;99503.56;;;2.65;65.01
18988;BME280;5494;51.796;10.952;2023-02-26T10:18:37;99510.66;;;2.42;66.88
18988;BME280;5494;51.796;10.952;2023-02-26T10:21:43;99513.13;;;2.51;67.94
18988;BME280;5494;51.796;10.952;2023-02-26T10:26:02;99521.59;;;2.59;66.84
18988;BME280;5494;51.796;10.952;2023-02-26T10:28:53;99524.81;;;2.79;66.04
18988;BME280;5494;51.796;10.952;2023-02-26T10:31:33;99514.22;;;2.24;64.13
18988;BME280;5494;51.796;10.952;2023-02-26T10:34:15;99521.88;;;2.28;66.47
18988;BME280;5494;51.796;10.952;2023-02-26T10:36:54;99519.03;;;2.59;66.88
18988;BME280;5494;51.796;10.952;2023-02-26T10:39:32;99519.81;;;2.67;65.93
18988;BME280;5494;51.796;10.952;2023-02-26T10:42:10;99527.72;;;2.46;65.56
18988;BME280;5494;51.796;10.952;2023-02-26T10:44:53;99534.06;;;2.02;66.75
18988;BME280;5494;51.796;10.952;2023-02-26T10:47:40;99529.69;;;2.16;67.54
18988;BME280;5494;51.796;10.952;2023-02-26T10:50:14;99530.59;;;2.12;66.02
18988;BME280;5494;51.796;10.952;2023-02-26T10:52:45;99534.81;;;2.16;64.88
18988;BME280;5494;51.796;10.952;2023-02-26T10:55:33;99533.63;;;2.54;62.76
18988;BME280;5494;51.796;10.952;2023-02-26T10:58:10;99525.66;;;2.81;62.76
18988;BME280;5494;51.796;10.952;2023-02-26T11:00:42;99529.97;;;2.77;62.39
18988;BME280;5494;51.796;10.952;2023-02-26T11:03:18;99535.88;;;2.86;62.74
18988;BME280;5494;51.796;10.952;2023-02-26T11:05:47;99532.44;;;2.85;62.59
18988;BME280;5494;51.796;10.952;2023-02-26T11:08:22;99543.75;;;2.69;63.77
18988;BME280;5494;51.796;10.952;2023-02-26T11:10:54;99538.47;;;2.83;62.71
18988;BME280;5494;51.796;10.952;2023-02-26T11:13:24;99544.50;;;2.77;63.84
18988;BME280;5494;51.796;10.952;2023-02-26T11:15:56;99547.91;;;2.79;60.19
18988;BME280;5494;51.796;10.952;2023-02-26T11:18:29;99547.56;;;2.24;59.80
18988;BME280;5494;51.796;10.952;2023-02-26T11:20:59;99537.53;;;1.96;60.05
18988;BME280;5494;51.796;10.952;2023-02-26T11:23:30;99541.75;;;2.02;60.74
18988;BME280;5494;51.796;10.952;2023-02-26T11:26:05;99534.69;;;2.31;65.64
18988;BME280;5494;51.796;10.952;2023-02-26T11:28:37;99521.66;;;2.56;62.97
18988;BME280;5494;51.796;10.952;2023-02-26T11:31:12;99526.81;;;2.50;64.91
18988;BME280;5494;51.796;10.952;2023-02-26T11:33:48;99526.50;;;2.83;66.19
18988;BME280;5494;51.796;10.952;2023-02-26T11:36:20;99527.59;;;3.34;65.17
18988;BME280;5494;51.796;10.952;2023-02-26T11:38:54;99522.63;;;3.82;62.06
18988;BME280;5494;51.796;10.952;2023-02-26T11:41:23;99529.75;;;3.66;59.67
18988;BME280;5494;51.796;10.952;2023-02-26T11:44:00;99535.84;;;3.58;60.03
18988;BME280;5494;51.796;10.952;2023-02-26T11:46:30;99538.22;;;3.71;61.31
18988;BME280;5494;51.796;10.952;2023-02-26T11:49:00;99536.66;;;3.61;57.91
18988;BME280;5494;51.796;10.952;2023-02-26T11:51:29;99532.91;;;3.21;56.14
18988;BME280;5494;51.796;10.952;2023-02-26T11:54:00;99540.59;;;3.22;56.15
18988;BME280;5494;51.796;10.952;2023-02-26T11:56:38;99534.91;;;2.94;57.38
18988;BME280;5494;51.796;10.952;2023-02-26T11:59:18;99533.44;;;2.73;56.29
18988;BME280;5494;51.796;10.952;2023-02-26T12:01:48;99541.91;;;2.80;59.99
18988;BME280;5494;51.796;10.952;2023-02-26T12:04:22;99541.22;;;2.66;56.52
18988;BME280;5494;51.796;10.952;2023-02-26T12:06:54;99541.59;;;2.25;60.14
18988;BME280;5494;51.796;10.952;2023-02-26T12:09:25;99533.53;;;2.63;61.29
18988;BME280;5494;51.796;10.952;2023-02-26T12:12:21;99534.91;;;2.94;60.95
18988;BME280;5494;51.796;10.952;2023-02-26T12:15:14;99538.34;;;2.93;58.13
18988;BME280;5494;51.796;10.952;2023-02-26T12:18:20;99545.47;;;2.67;57.06
18988;BME280;5494;51.796;10.952;2023-02-26T12:21:08;99554.47;;;2.17;58.80
18988;BME280;5494;51.796;10.952;2023-02-26T12:24:06;99557.03;;;2.19;59.25
18988;BME280;5494;51.796;10.952;2023-02-26T12:26:50;99547.63;;;2.16;60.40
18988;BME280;5494;51.796;10.952;2023-02-26T12:29:43;99556.72;;;2.52;60.16
18988;BME280;5494;51.796;10.952;2023-02-26T12:32:36;99555.16;;;2.39;57.03
18988;BME280;5494;51.796;10.952;2023-02-26T12:35:43;99567.16;;;2.32;56.42
18988;BME280;5494;51.796;10.952;2023-02-26T12:38:28;99560.94;;;2.59;56.80
18988;BME280;5494;51.796;10.952;2023-02-26T12:41:26;99566.66;;;2.89;55.41
18988;BME280;5494;51.796;10.952;2023-02-26T12:44:04;99565.34;;;2.48;53.93
18988;BME280;5494;51.796;10.952;2023-02-26T12:46:59;99561.59;;;2.81;54.16
18988;BME280;5494;51.796;10.952;2023-02-26T12:49:50;99570.78;;;3.02;51.93
18988;BME280;5494;51.796;10.952;2023-02-26T12:55:48;99570.28;;;2.66;55.01
18988;BME280;5494;51.796;10.952;2023-02-26T12:58:58;99571.56;;;3.10;54.12
18988;BME280;5494;51.796;10.952;2023-02-26T13:01:43;99567.13;;;3.23;52.84
18988;BME280;5494;51.796;10.952;2023-02-26T13:04:41;99570.41;;;3.34;52.59
18988;BME280;5494;51.796;10.952;2023-02-26T13:07:38;99567.84;;;3.32;51.96
18988;BME280;5494;51.796;10.952;2023-02-26T13:10:25;99569.44;;;3.44;52.62
18988;BME280;5494;51.796;10.952;2023-02-26T13:13:29;99568.41;;;3.57;51.94
18988;BME280;5494;51.796;10.952;2023-02-26T13:16:28;99570.03;;;3.64;52.14
18988;BME280;5494;51.796;10.952;2023-02-26T13:19:11;99581.44;;;3.42;51.76
18988;BME280;5494;51.796;10.952;2023-02-26T13:21:47;99583.91;;;2.71;51.73
18988;BME280;5494;51.796;10.952;2023-02-26T13:24:23;99583.09;;;2.69;52.41
18988;BME280;5494;51.796;10.952;2023-02-26T13:26:54;99588.19;;;2.74;50.94
18988;BME280;5494;51.796;10.952;2023-02-26T13:29:29;99572.56;;;2.95;53.25
18988;BME280;5494;51.796;10.952;2023-02-26T13:32:02;99560.19;;;3.31;54.04
18988;BME280;5494;51.796;10.952;2023-02-26T13:34:39;99562.78;;;3.28;51.88
18988;BME280;5494;51.796;10.952;2023-02-26T13:37:21;99578.28;;;3.20;52.10
18988;BME280;5494;51.796;10.952;2023-02-26T13:40:22;99575.38;;;3.49;50.28
18988;BME280;5494;51.796;10.952;2023-02-26T13:43:06;99572.81;;;3.47;48.38
18988;BME280;5494;51.796;10.952;2023-02-26T13:45:54;99573.63;;;3.51;48.33